Terminal Aerodrome Forecast
Issued by NWS Quad Cities IA IL

Home | Current Version | Previous Version | Text Only | Print | Product List | Glossary On
Versions: 1 2 3 4 5 6 7 8 9 10 11 12 13 14 15 16 17 18 19 20 21 22
000
FTUS43 KDVN 181700
TAFMLI
TAF
KMLI 181726Z 1818/1918 08009KT P6SM SCT030
     FM190000 11004KT P6SM SKC
     FM190900 13004KT 4SM BR SCT003
     FM191500 16009KT P6SM SCT250=

USA.gov is the U.S. government's official web portal to all federal, state and local government web resources and services.